Time;durP1;ratioP1;P1;durP2;ratioP2;P2;SDS_P1;SDS_P2;PMS_P1;PMS_P2;Temp;Humidity;BMP_temperature;BMP_pressure;BME280_temperature;BME280_humidity;BME280_pressure;Samples;Min_cycle;Max_cycle;Signal;HPM_P1;HPM_P2
2023/02/19 00:01:14;;;;;;;3.20;2.90;;;11.40;1.00;;;;;;5094895;28;20716;-42
2023/02/19 00:03:41;;;;;;;3.00;2.70;;;11.40;1.00;;;;;;5094325;28;20465;-42
2023/02/19 00:06:09;;;;;;;4.43;2.73;;;11.40;99.90;;;;;;5096031;28;20471;-42
2023/02/19 00:08:37;;;;;;;3.37;2.73;;;11.40;99.90;;;;;;5097944;28;20561;-42
2023/02/19 00:11:11;;;;;;;2.90;2.60;;;11.40;99.90;;;;;;5098212;28;20492;-42
2023/02/19 00:13:38;;;;;;;4.10;3.30;;;11.40;99.90;;;;;;5099023;28;20422;-42
2023/02/19 00:16:07;;;;;;;4.37;2.93;;;11.40;99.90;;;;;;5098411;28;20395;-41
2023/02/19 00:18:33;;;;;;;3.37;3.07;;;11.40;99.90;;;;;;5098623;28;20484;-42
2023/02/19 00:20:58;;;;;;;2.97;2.43;;;11.40;59.30;;;;;;5097701;28;20438;-42
2023/02/19 00:23:25;;;;;;;4.43;2.87;;;11.40;1.00;;;;;;5097235;28;20497;-43
2023/02/19 00:25:51;;;;;;;3.10;2.80;;;11.40;1.00;;;;;;5097809;28;20164;-42
2023/02/19 00:28:17;;;;;;;4.03;2.50;;;11.40;1.00;;;;;;5097277;28;20470;-46
2023/02/19 00:30:42;;;;;;;2.17;1.97;;;11.40;1.00;;;;;;5096631;28;20180;-43
2023/02/19 00:33:08;;;;;;;2.90;2.43;;;11.40;1.00;;;;;;5097124;28;20192;-44
2023/02/19 00:35:34;;;;;;;2.40;2.20;;;11.40;1.00;;;;;;5097400;28;20230;-42
2023/02/19 00:38:00;;;;;;;3.50;2.60;;;11.40;99.90;;;;;;5096217;28;20180;-42
2023/02/19 00:40:26;;;;;;;2.63;2.10;;;11.40;1.00;;;;;;5094370;28;20550;-44
2023/02/19 00:42:52;;;;;;;2.60;2.40;;;11.30;1.00;;;;;;5095460;28;20867;-44
2023/02/19 00:45:18;;;;;;;2.93;2.23;;;11.30;1.00;;;;;;5097204;28;20177;-43
2023/02/19 00:47:43;;;;;;;3.70;2.50;;;11.30;1.00;;;;;;5096605;28;20462;-42
2023/02/19 00:50:09;;;;;;;2.67;2.20;;;11.30;1.00;;;;;;5097176;28;20641;-42
2023/02/19 00:52:35;;;;;;;2.47;2.27;;;11.30;1.00;;;;;;5096586;28;20172;-45
2023/02/19 00:55:01;;;;;;;2.80;2.47;;;11.30;56.80;;;;;;5098496;28;20426;-41
2023/02/19 00:57:27;;;;;;;2.80;2.23;;;11.20;78.20;;;;;;5096861;28;20492;-42
2023/02/19 00:59:52;;;;;;;2.33;2.13;;;11.20;99.90;;;;;;5097067;28;20438;-42
2023/02/19 01:02:18;;;;;;;3.33;3.03;;;11.20;99.90;;;;;;5098130;28;20184;-42
2023/02/19 01:04:43;;;;;;;2.20;1.80;;;11.20;99.90;;;;;;5098211;28;20188;-42
2023/02/19 01:07:09;;;;;;;2.27;2.07;;;11.20;99.90;;;;;;5096129;28;20208;-42
2023/02/19 01:09:35;;;;;;;2.50;2.10;;;11.20;99.90;;;;;;5098191;28;20172;-42
2023/02/19 01:12:01;;;;;;;3.97;2.10;;;11.20;99.90;;;;;;5080694;28;20486;-42
2023/02/19 01:14:26;;;;;;;2.43;2.23;;;11.10;99.90;;;;;;5096679;28;20619;-43
2023/02/19 01:16:52;;;;;;;2.33;1.97;;;11.10;1.00;;;;;;5096660;28;20172;-42
2023/02/19 01:19:18;;;;;;;2.90;2.47;;;11.10;1.00;;;;;;5098145;28;20479;-43
2023/02/19 01:21:43;;;;;;;2.90;2.60;;;11.10;1.00;;;;;;5097230;28;20223;-43
2023/02/19 01:24:09;;;;;;;3.20;2.40;;;11.10;1.00;;;;;;5097061;28;20222;-42
2023/02/19 01:26:35;;;;;;;2.53;2.33;;;11.10;1.00;;;;;;5096964;28;20557;-41
2023/02/19 01:29:01;;;;;;;2.37;2.13;;;11.10;1.00;;;;;;5097296;28;20756;-42
2023/02/19 01:31:27;;;;;;;2.37;2.17;;;11.00;1.00;;;;;;5095290;28;20184;-41
2023/02/19 01:33:58;;;;;;;3.03;2.73;;;11.00;1.00;;;;;;5075936;28;20742;-44
2023/02/19 01:36:24;;;;;;;2.47;2.10;;;11.00;1.00;;;;;;5091022;28;20792;-42
2023/02/19 01:38:50;;;;;;;2.63;2.37;;;11.00;1.00;;;;;;5095969;28;20415;-41
2023/02/19 01:41:20;;;;;;;2.97;2.70;;;11.00;1.00;;;;;;5095178;28;20503;-42
2023/02/19 01:44:11;;;;;;;3.10;2.73;;;11.00;1.00;;;;;;5084314;28;20180;-41
2023/02/19 01:46:47;;;;;;;2.20;2.00;;;11.00;1.00;;;;;;5074922;28;20556;-40
2023/02/19 01:49:23;;;;;;;3.20;2.30;;;11.00;1.00;;;;;;5081680;28;20513;-41
2023/02/19 01:52:00;;;;;;;2.80;2.33;;;11.00;1.00;;;;;;5086301;28;20411;-41
2023/02/19 01:54:30;;;;;;;3.57;2.90;;;10.90;53.20;;;;;;5085917;28;20499;-41
2023/02/19 01:56:56;;;;;;;2.90;2.53;;;11.00;99.90;;;;;;5082843;28;20797;-43
2023/02/19 01:59:22;;;;;;;3.40;2.87;;;10.90;99.90;;;;;;5073659;28;20482;-41
2023/02/19 02:01:48;;;;;;;3.23;2.50;;;10.90;99.90;;;;;;5078330;28;20839;-42
2023/02/19 02:04:14;;;;;;;3.00;2.37;;;10.90;99.90;;;;;;5074611;28;20185;-43
2023/02/19 02:06:52;;;;;;;4.10;2.90;;;10.80;99.90;;;;;;5073434;28;20427;-42
2023/02/19 02:12:04;;;;;;;2.60;2.40;;;10.80;1.00;;;;;;5074423;28;20451;-42
2023/02/19 02:14:33;;;;;;;3.47;2.40;;;10.90;1.00;;;;;;5079693;28;20421;-41
2023/02/19 02:17:22;;;;;;;2.70;2.03;;;10.80;1.00;;;;;;5095107;28;20433;-41
2023/02/19 02:20:20;;;;;;;3.23;2.93;;;10.80;1.00;;;;;;5086988;28;20425;-41
2023/02/19 02:23:08;;;;;;;5.00;3.10;;;10.80;1.00;;;;;;5096473;28;20426;-41
2023/02/19 02:25:40;;;;;;;3.17;2.87;;;10.80;1.00;;;;;;5091668;28;20692;-41
2023/02/19 02:28:12;;;;;;;3.13;2.70;;;10.80;40.60;;;;;;5080517;28;20729;-42
2023/02/19 02:30:43;;;;;;;3.00;2.80;;;10.80;31.50;;;;;;5076613;28;20769;-42
2023/02/19 02:33:09;;;;;;;3.40;3.10;;;10.80;28.90;;;;;;5081906;28;20772;-42
2023/02/19 02:36:01;;;;;;;3.00;2.70;;;10.70;52.40;;;;;;5079322;28;20419;-41
2023/02/19 02:38:29;;;;;;;3.50;3.20;;;10.80;82.00;;;;;;5095378;28;20211;-43
2023/02/19 02:40:55;;;;;;;3.00;2.67;;;10.70;79.00;;;;;;5085577;28;20497;-41
2023/02/19 02:43:21;;;;;;;3.23;2.93;;;10.70;99.90;;;;;;5077421;28;20914;-42
2023/02/19 02:45:46;;;;;;;3.17;2.87;;;10.70;99.90;;;;;;5092957;28;20406;-43
2023/02/19 02:48:29;;;;;;;3.63;2.67;;;10.70;99.90;;;;;;5081873;28;20812;-41
2023/02/19 02:51:05;;;;;;;3.00;2.33;;;10.70;99.90;;;;;;5076839;28;20174;-42
2023/02/19 02:56:24;;;;;;;3.67;2.63;;;10.70;99.90;;;;;;5075314;28;20429;-41
2023/02/19 02:58:51;;;;;;;3.17;2.90;;;10.70;99.90;;;;;;5075104;28;20423;-42
2023/02/19 03:04:34;;;;;;;3.40;3.10;;;10.60;99.90;;;;;;5095543;28;20486;-41
2023/02/19 03:07:03;;;;;;;4.00;2.97;;;10.60;99.90;;;;;;5095456;28;20423;-42
2023/02/19 03:09:39;;;;;;;3.23;2.93;;;10.60;99.90;;;;;;5096673;28;20415;-42
2023/02/19 03:20:29;;;;;;;3.00;2.70;;;10.60;99.90;;;;;;5099777;28;20428;-42
2023/02/19 03:22:55;;;;;;;3.07;2.77;;;10.60;99.90;;;;;;5081643;28;20751;-42
2023/02/19 03:28:11;;;;;;;2.40;2.20;;;10.50;99.90;;;;;;5098929;28;20575;-42
2023/02/19 03:30:51;;;;;;;2.27;2.07;;;10.50;99.90;;;;;;5099540;28;20411;-41
2023/02/19 03:33:21;;;;;;;2.47;2.27;;;10.50;99.90;;;;;;5100521;28;20478;-41
2023/02/19 03:35:54;;;;;;;3.43;2.87;;;10.50;99.90;;;;;;5099443;28;20415;-43
2023/02/19 03:38:26;;;;;;;2.57;2.33;;;10.50;99.90;;;;;;5098501;28;20411;-45
2023/02/19 03:41:03;;;;;;;2.30;1.83;;;10.50;99.90;;;;;;5098725;28;20429;-41
2023/02/19 03:43:42;;;;;;;3.77;2.77;;;10.50;99.90;;;;;;5099759;28;20418;-42
2023/02/19 03:46:14;;;;;;;2.40;2.20;;;10.50;99.90;;;;;;5098747;28;20422;-43
2023/02/19 03:49:03;;;;;;;2.50;1.70;;;10.50;99.90;;;;;;5099569;28;20453;-42
2023/02/19 03:51:39;;;;;;;2.10;1.50;;;10.50;99.90;;;;;;5097342;28;20426;-43
2023/02/19 03:54:20;;;;;;;2.20;1.40;;;10.40;99.90;;;;;;5097488;28;20490;-42
2023/02/19 03:56:57;;;;;;;2.53;1.10;;;10.40;99.90;;;;;;5098153;28;20488;-44
2023/02/19 03:59:29;;;;;;;2.07;1.17;;;10.40;99.90;;;;;;5098262;28;20426;-43
2023/02/19 04:01:59;;;;;;;2.20;1.03;;;10.40;99.90;;;;;;5097544;28;20836;-43
2023/02/19 04:04:29;;;;;;;1.40;1.10;;;10.40;99.90;;;;;;5098468;28;20509;-42
2023/02/19 04:06:56;;;;;;;1.23;0.93;;;10.30;99.90;;;;;;5097317;28;20801;-41
2023/02/19 04:09:25;;;;;;;1.30;1.00;;;10.30;99.90;;;;;;5098874;28;20499;-41
2023/02/19 04:11:51;;;;;;;1.40;1.03;;;10.30;99.90;;;;;;5098127;28;20438;-41
2023/02/19 04:14:21;;;;;;;1.10;0.80;;;10.30;99.90;;;;;;5098016;28;20434;-42
2023/02/19 04:16:53;;;;;;;1.50;1.00;;;10.30;99.90;;;;;;5098384;28;20407;-41
2023/02/19 04:19:20;;;;;;;1.20;0.80;;;10.30;99.90;;;;;;5081865;28;20437;-41
2023/02/19 04:21:46;;;;;;;1.23;0.93;;;10.30;99.90;;;;;;5099348;28;20453;-42
2023/02/19 04:24:28;;;;;;;2.23;0.70;;;10.30;99.90;;;;;;5097939;28;20759;-41
2023/02/19 04:26:55;;;;;;;1.00;0.83;;;10.20;99.90;;;;;;5098589;28;20714;-42
2023/02/19 04:29:20;;;;;;;0.90;0.60;;;10.20;99.90;;;;;;5099336;28;20754;-41
2023/02/19 04:31:46;;;;;;;1.00;0.70;;;10.30;99.30;;;;;;5099329;28;20411;-40
2023/02/19 04:34:11;;;;;;;1.80;0.83;;;10.20;59.80;;;;;;5098057;28;20180;-40
2023/02/19 04:36:37;;;;;;;1.37;0.70;;;10.20;36.50;;;;;;5098491;28;20570;-41
2023/02/19 04:39:03;;;;;;;2.13;1.00;;;10.20;26.20;;;;;;5096838;28;20275;-41
2023/02/19 04:41:28;;;;;;;1.33;0.60;;;10.20;2.20;;;;;;5097158;28;20175;-41
2023/02/19 04:43:54;;;;;;;1.03;0.70;;;10.20;1.00;;;;;;5097028;28;20176;-41
2023/02/19 04:46:20;;;;;;;1.70;0.70;;;10.20;1.00;;;;;;5096540;28;20241;-42
2023/02/19 04:48:45;;;;;;;0.90;0.50;;;10.20;1.00;;;;;;5097173;28;20470;-41
2023/02/19 04:51:11;;;;;;;1.40;0.80;;;10.20;1.00;;;;;;5097534;28;20208;-41
2023/02/19 04:53:37;;;;;;;0.90;0.50;;;10.20;1.00;;;;;;5098261;28;20450;-41
2023/02/19 04:56:12;;;;;;;2.70;0.67;;;10.20;1.00;;;;;;5098495;28;20499;-42
2023/02/19 04:58:38;;;;;;;0.80;0.40;;;10.20;1.00;;;;;;5096399;28;20526;-40
2023/02/19 05:01:03;;;;;;;0.80;0.40;;;10.20;1.00;;;;;;5096175;28;20430;-40
2023/02/19 05:03:29;;;;;;;1.20;0.50;;;10.20;1.00;;;;;;5096849;28;20434;-41
2023/02/19 05:05:55;;;;;;;0.90;0.40;;;10.20;1.00;;;;;;5096923;28;20172;-43
2023/02/19 05:08:20;;;;;;;0.83;0.47;;;10.30;1.00;;;;;;5095637;28;20215;-42
2023/02/19 05:10:46;;;;;;;0.67;0.30;;;10.30;1.00;;;;;;5095467;28;20173;-41
2023/02/19 05:13:11;;;;;;;0.80;0.40;;;10.30;1.00;;;;;;5095964;28;20193;-40
2023/02/19 05:15:37;;;;;;;0.97;0.30;;;10.20;1.00;;;;;;5096188;28;20202;-41
2023/02/19 05:18:03;;;;;;;0.80;0.30;;;10.20;1.00;;;;;;5096707;28;20195;-41
2023/02/19 05:20:28;;;;;;;0.90;0.50;;;10.20;1.00;;;;;;5094894;28;20184;-43
2023/02/19 05:22:54;;;;;;;0.70;0.40;;;10.20;1.00;;;;;;5096144;28;20183;-42
2023/02/19 05:25:19;;;;;;;0.80;0.37;;;10.20;1.00;;;;;;5096024;28;20176;-41
2023/02/19 05:27:45;;;;;;;0.80;0.30;;;10.20;1.00;;;;;;5096012;28;20228;-41
2023/02/19 05:30:11;;;;;;;0.90;0.40;;;10.20;1.00;;;;;;5095520;28;20180;-41
2023/02/19 05:32:37;;;;;;;0.70;0.40;;;10.20;1.00;;;;;;5096693;28;20302;-41
2023/02/19 05:35:03;;;;;;;0.93;0.50;;;10.20;1.00;;;;;;5097180;28;20507;-43
2023/02/19 05:37:28;;;;;;;0.80;0.40;;;10.20;1.00;;;;;;5097354;28;20473;-41
2023/02/19 05:39:54;;;;;;;0.77;0.33;;;10.20;1.00;;;;;;5097399;28;20506;-42
2023/02/19 05:42:20;;;;;;;0.70;0.30;;;10.20;1.00;;;;;;5097626;28;20177;-42
2023/02/19 05:44:45;;;;;;;0.73;0.30;;;10.10;1.00;;;;;;5097442;28;20201;-41
2023/02/19 05:47:11;;;;;;;0.90;0.40;;;10.20;1.00;;;;;;5096299;28;20191;-41
2023/02/19 05:49:37;;;;;;;0.80;0.33;;;10.20;1.00;;;;;;5097767;28;20255;-40
2023/02/19 05:52:03;;;;;;;0.87;0.40;;;10.10;1.00;;;;;;5097698;28;20244;-44
2023/02/19 05:54:29;;;;;;;1.17;0.30;;;10.20;1.00;;;;;;5098068;28;20172;-41
2023/02/19 05:56:55;;;;;;;0.80;0.30;;;10.10;1.00;;;;;;5097740;28;20410;-42
2023/02/19 05:59:23;;;;;;;0.97;0.37;;;10.10;1.00;;;;;;5097712;28;20267;-42
2023/02/19 06:01:52;;;;;;;1.00;0.50;;;10.10;1.00;;;;;;5096092;28;20446;-41
2023/02/19 06:04:19;;;;;;;0.97;0.40;;;10.10;1.00;;;;;;5096443;28;20425;-43
2023/02/19 06:06:45;;;;;;;0.70;0.30;;;10.10;1.00;;;;;;5096241;28;20506;-46
2023/02/19 06:09:11;;;;;;;0.83;0.30;;;10.10;1.00;;;;;;5096807;28;20553;-43
2023/02/19 06:11:37;;;;;;;0.70;0.27;;;10.10;99.90;;;;;;5096939;28;20670;-44
2023/02/19 06:14:03;;;;;;;0.80;0.40;;;10.10;99.90;;;;;;5095700;28;20168;-41
2023/02/19 06:16:31;;;;;;;0.70;0.23;;;10.10;99.90;;;;;;5096823;28;20861;-41
2023/02/19 06:18:56;;;;;;;0.90;0.30;;;10.10;99.90;;;;;;5096122;28;20439;-41
2023/02/19 06:21:22;;;;;;;0.70;0.30;;;10.10;99.90;;;;;;5095162;28;20476;-42
2023/02/19 06:23:47;;;;;;;0.80;0.33;;;10.10;1.00;;;;;;5095442;28;20181;-41
2023/02/19 06:26:19;;;;;;;1.10;0.40;;;10.10;1.00;;;;;;5096154;28;20180;-40
2023/02/19 06:28:46;;;;;;;1.00;0.40;;;10.10;99.90;;;;;;5095669;28;20268;-41
2023/02/19 06:31:12;;;;;;;0.80;0.40;;;10.00;99.90;;;;;;5096547;28;20422;-43
2023/02/19 06:33:39;;;;;;;1.20;0.60;;;10.00;99.90;;;;;;5096920;28;20431;-42
2023/02/19 06:36:06;;;;;;;1.40;0.67;;;9.90;1.00;;;;;;5096191;28;20180;-41
2023/02/19 06:38:32;;;;;;;0.80;0.50;;;9.90;99.90;;;;;;5097192;28;20445;-42
2023/02/19 06:41:02;;;;;;;0.90;0.60;;;9.90;1.00;;;;;;5096482;28;20415;-41
2023/02/19 06:43:27;;;;;;;1.27;0.50;;;9.80;1.00;;;;;;5097760;28;20425;-41
2023/02/19 06:45:53;;;;;;;1.73;0.37;;;9.80;36.20;;;;;;5100635;28;20406;-41
2023/02/19 06:48:19;;;;;;;0.90;0.50;;;9.80;1.00;;;;;;5100697;28;20290;-41
2023/02/19 06:50:44;;;;;;;0.70;0.40;;;9.80;1.00;;;;;;5101340;28;20526;-42
2023/02/19 06:53:10;;;;;;;0.90;0.57;;;9.80;1.00;;;;;;5101597;28;20168;-42
2023/02/19 06:55:39;;;;;;;0.90;0.57;;;9.80;99.90;;;;;;5101398;28;20172;-41
2023/02/19 06:58:05;;;;;;;0.83;0.43;;;9.80;99.90;;;;;;5101634;28;20172;-41
2023/02/19 07:00:31;;;;;;;1.13;0.60;;;9.80;99.90;;;;;;5099772;28;20521;-42
2023/02/19 07:02:56;;;;;;;0.83;0.50;;;9.80;88.30;;;;;;5101030;28;20470;-42
2023/02/19 07:05:22;;;;;;;0.83;0.43;;;9.80;11.30;;;;;;5100888;28;20188;-42
2023/02/19 07:07:48;;;;;;;0.70;0.40;;;9.90;1.00;;;;;;5100162;28;20365;-41
2023/02/19 07:10:15;;;;;;;0.70;0.30;;;9.90;1.00;;;;;;5099943;28;20480;-41
2023/02/19 07:12:40;;;;;;;0.80;0.40;;;9.90;1.00;;;;;;5098054;28;20838;-42
2023/02/19 07:15:06;;;;;;;0.90;0.40;;;9.90;1.00;;;;;;5099219;28;20429;-40
2023/02/19 07:17:33;;;;;;;0.70;0.30;;;9.90;1.00;;;;;;5100451;28;20184;-41
2023/02/19 07:19:59;;;;;;;1.00;0.50;;;9.90;1.00;;;;;;5100772;28;20426;-42
2023/02/19 07:22:24;;;;;;;0.70;0.30;;;10.00;1.00;;;;;;5100187;28;20418;-41
2023/02/19 07:24:50;;;;;;;0.70;0.30;;;10.00;1.00;;;;;;5099657;28;20173;-40
2023/02/19 07:27:16;;;;;;;0.80;0.37;;;10.00;1.00;;;;;;5099825;28;20369;-41
2023/02/19 07:29:41;;;;;;;0.80;0.30;;;10.00;1.00;;;;;;5099353;28;20173;-41
2023/02/19 07:32:07;;;;;;;1.90;0.70;;;10.00;99.90;;;;;;5097856;28;20168;-41
2023/02/19 07:34:32;;;;;;;1.00;0.70;;;10.00;99.90;;;;;;5098684;28;20657;-42
2023/02/19 07:36:58;;;;;;;1.30;0.70;;;10.00;99.90;;;;;;5098172;28;20173;-42
2023/02/19 07:39:23;;;;;;;2.40;0.77;;;10.10;99.90;;;;;;5099598;28;20168;-43
2023/02/19 07:41:49;;;;;;;1.17;0.80;;;10.10;99.90;;;;;;5098753;28;20207;-40
2023/02/19 07:44:15;;;;;;;1.00;0.77;;;10.10;99.90;;;;;;5099243;28;20329;-42
2023/02/19 07:46:42;;;;;;;1.20;0.93;;;10.10;66.30;;;;;;5098997;28;20180;-41
2023/02/19 07:49:07;;;;;;;1.50;1.00;;;10.10;53.50;;;;;;5099658;28;20462;-41
2023/02/19 07:51:33;;;;;;;1.20;1.00;;;10.10;99.90;;;;;;5098445;28;20426;-42
2023/02/19 07:53:59;;;;;;;1.53;0.90;;;10.10;1.00;;;;;;5100024;28;20566;-44
2023/02/19 07:56:24;;;;;;;1.40;1.00;;;10.10;1.00;;;;;;5098465;28;20172;-41
2023/02/19 07:58:50;;;;;;;1.57;1.47;;;10.10;99.80;;;;;;5099271;28;20185;-42
2023/02/19 08:02:58;;;;;;;1.63;1.30;;;10.10;99.90;;;;;;5099099;28;20176;-43
2023/02/19 08:04:04;;;;;;;1.30;1.00;;;10.10;99.90;;;;;;5098626;28;20513;-41
2023/02/19 08:06:30;;;;;;;1.20;0.90;;;10.20;99.90;;;;;;5098835;28;20422;-43
2023/02/19 08:08:56;;;;;;;1.47;1.20;;;10.20;99.90;;;;;;5099356;28;20216;-45
2023/02/19 08:14:06;;;;;;;1.30;1.10;;;10.30;23.50;;;;;;5098943;28;20421;-42
2023/02/19 08:16:32;;;;;;;2.40;1.00;;;10.30;1.00;;;;;;5098027;28;20656;-42
2023/02/19 08:18:57;;;;;;;1.93;1.10;;;10.30;99.90;;;;;;5098432;28;20215;-44
2023/02/19 08:21:23;;;;;;;1.43;1.10;;;10.30;99.90;;;;;;5097966;28;20184;-42
2023/02/19 08:23:49;;;;;;;1.40;1.03;;;10.20;99.90;;;;;;5098026;28;20439;-42
2023/02/19 08:26:14;;;;;;;2.07;1.00;;;10.20;1.00;;;;;;5097380;28;20183;-43
2023/02/19 08:28:40;;;;;;;2.33;1.10;;;10.20;1.00;;;;;;5097762;28;20541;-44
2023/02/19 08:31:07;;;;;;;1.27;1.00;;;10.20;99.90;;;;;;5098226;28;20253;-41
2023/02/19 08:33:33;;;;;;;1.67;1.13;;;10.20;99.90;;;;;;5099125;28;20433;-42
2023/02/19 08:36:04;;;;;;;2.20;1.10;;;10.20;1.00;;;;;;5098832;28;20423;-43
2023/02/19 08:38:30;;;;;;;1.30;1.00;;;10.20;1.00;;;;;;5097410;28;20176;-44
2023/02/19 08:40:55;;;;;;;1.60;1.17;;;10.30;86.70;;;;;;5096912;28;20539;-43
2023/02/19 08:43:21;;;;;;;1.20;0.80;;;10.30;99.90;;;;;;5096654;28;20733;-43
2023/02/19 08:45:47;;;;;;;1.63;0.90;;;10.30;83.00;;;;;;5096803;28;20407;-42
2023/02/19 08:48:13;;;;;;;1.23;0.90;;;10.40;1.00;;;;;;5098303;28;20235;-42
2023/02/19 08:50:39;;;;;;;1.23;0.93;;;10.40;1.00;;;;;;5098064;28;20177;-45
2023/02/19 08:53:05;;;;;;;1.20;0.80;;;10.50;99.90;;;;;;5097223;28;20418;-42
2023/02/19 08:55:31;;;;;;;1.10;0.90;;;10.50;99.30;;;;;;5096154;28;20169;-42
2023/02/19 08:57:57;;;;;;;1.33;1.00;;;10.60;1.00;;;;;;5095733;28;20697;-41
2023/02/19 09:00:23;;;;;;;1.37;0.90;;;10.70;99.90;;;;;;5095823;28;20507;-42
2023/02/19 09:02:49;;;;;;;1.17;1.07;;;10.70;99.90;;;;;;5094488;28;20208;-44
2023/02/19 09:05:15;;;;;;;1.03;0.70;;;10.80;1.00;;;;;;5095761;28;20518;-42
2023/02/19 09:07:41;;;;;;;1.10;0.70;;;10.90;1.00;;;;;;5094885;28;20462;-45
2023/02/19 09:10:08;;;;;;;1.13;0.80;;;11.00;99.90;;;;;;5096646;28;20509;-42
2023/02/19 09:12:34;;;;;;;2.70;0.90;;;11.00;99.90;;;;;;5096516;28;20447;-42
2023/02/19 09:15:00;;;;;;;3.00;1.23;;;11.10;53.10;;;;;;5097335;28;20414;-42
2023/02/19 09:17:28;;;;;;;1.03;0.60;;;11.20;1.00;;;;;;5096636;28;20581;-42
2023/02/19 09:19:54;;;;;;;1.30;0.90;;;11.20;1.00;;;;;;5097183;28;20523;-44
2023/02/19 09:22:20;;;;;;;2.40;1.00;;;11.20;1.00;;;;;;5097000;28;20421;-44
2023/02/19 09:24:45;;;;;;;1.10;0.80;;;11.30;1.00;;;;;;5095675;28;20256;-44
2023/02/19 09:27:16;;;;;;;2.70;1.43;;;11.40;1.00;;;;;;5098171;28;20314;-42
2023/02/19 09:29:42;;;;;;;2.40;1.37;;;11.40;1.00;;;;;;5097637;28;20247;-42
2023/02/19 09:32:08;;;;;;;2.90;1.00;;;11.40;99.90;;;;;;5096543;28;20454;-41
2023/02/19 09:34:34;;;;;;;1.40;1.13;;;11.40;99.90;;;;;;5096024;28;20419;-41
2023/02/19 09:36:59;;;;;;;2.27;1.17;;;11.40;99.90;;;;;;5097110;28;20474;-41
2023/02/19 09:39:25;;;;;;;1.87;1.20;;;11.40;99.90;;;;;;5096690;28;20508;-44
2023/02/19 09:42:14;;;;;;;1.30;1.00;;;11.30;99.90;;;;;;5095355;28;20244;-49
2023/02/19 09:44:42;;;;;;;1.97;0.90;;;11.30;99.90;;;;;;5086148;28;20184;-43
2023/02/19 09:47:22;;;;;;;2.47;1.57;;;11.30;99.90;;;;;;5096313;28;20426;-41
2023/02/19 09:49:53;;;;;;;2.10;1.13;;;11.20;99.90;;;;;;5096865;28;20418;-41
2023/02/19 09:52:24;;;;;;;2.23;1.37;;;11.20;99.90;;;;;;5080040;28;20434;-40
2023/02/19 09:54:56;;;;;;;2.83;0.77;;;11.20;99.90;;;;;;5096661;28;20426;-42
2023/02/19 09:57:22;;;;;;;1.73;0.90;;;11.20;99.90;;;;;;5095028;28;20422;-41
2023/02/19 09:59:50;;;;;;;3.50;0.90;;;11.30;1.00;;;;;;5094147;28;20418;-41
2023/02/19 10:02:21;;;;;;;2.40;1.00;;;11.50;99.90;;;;;;5095508;28;20434;-42
2023/02/19 10:04:50;;;;;;;1.67;1.20;;;11.80;99.90;;;;;;5096228;28;20529;-42
2023/02/19 10:07:19;;;;;;;3.30;1.30;;;12.00;99.90;;;;;;5094888;28;20502;-42
2023/02/19 10:09:50;;;;;;;4.40;1.80;;;12.20;99.90;;;;;;5095037;28;20419;-42
2023/02/19 10:12:24;;;;;;;5.27;3.43;;;12.40;42.10;;;;;;5093460;28;20806;-43
2023/02/19 10:14:52;;;;;;;4.13;3.73;;;12.60;99.90;;;;;;5093835;28;20860;-40
2023/02/19 10:17:26;;;;;;;4.00;2.00;;;12.50;99.90;;;;;;5093854;28;20414;-41
2023/02/19 10:19:52;;;;;;;2.80;1.30;;;12.30;99.90;;;;;;5092407;28;20417;-40
2023/02/19 10:22:18;;;;;;;3.10;1.57;;;12.10;99.90;;;;;;5093659;28;20504;-41
2023/02/19 10:24:45;;;;;;;3.00;1.23;;;11.90;99.90;;;;;;5094192;28;20519;-41
2023/02/19 10:27:14;;;;;;;4.43;1.87;;;11.70;99.90;;;;;;5093696;28;20918;-47
2023/02/19 10:29:46;;;;;;;5.40;2.30;;;11.60;99.90;;;;;;5095555;28;20465;-46
2023/02/19 10:32:13;;;;;;;2.03;1.30;;;11.50;99.90;;;;;;5093460;28;20402;-41
2023/02/19 10:34:38;;;;;;;3.77;1.83;;;11.40;99.90;;;;;;5093805;28;20420;-41
2023/02/19 10:37:15;;;;;;;2.60;1.00;;;11.40;99.90;;;;;;5093636;28;20534;-42
2023/02/19 10:39:44;;;;;;;2.00;1.50;;;11.40;99.90;;;;;;5092903;28;20255;-41
2023/02/19 10:42:21;;;;;;;1.90;1.33;;;11.40;99.90;;;;;;5091245;28;20409;-42
2023/02/19 10:44:53;;;;;;;5.27;1.27;;;11.50;99.90;;;;;;5093538;28;20729;-41
2023/02/19 10:47:21;;;;;;;3.17;1.70;;;11.50;99.90;;;;;;5094551;28;20403;-41
2023/02/19 10:49:48;;;;;;;1.90;1.27;;;11.50;99.90;;;;;;5096240;28;20441;-41
2023/02/19 10:52:22;;;;;;;4.90;1.20;;;11.60;99.90;;;;;;5095147;28;20483;-42
2023/02/19 10:54:56;;;;;;;2.60;1.17;;;11.70;99.90;;;;;;5095771;28;20429;-41
2023/02/19 10:57:28;;;;;;;3.27;1.33;;;11.80;99.90;;;;;;5094647;28;20546;-41
2023/02/19 11:00:03;;;;;;;2.37;0.97;;;11.90;91.00;;;;;;5095388;28;20457;-41
2023/02/19 11:02:30;;;;;;;3.13;1.47;;;12.00;54.30;;;;;;5093544;28;20730;-43
2023/02/19 11:05:18;;;;;;;1.63;0.83;;;12.10;34.20;;;;;;5094248;28;20462;-42
2023/02/19 11:07:55;;;;;;;3.10;1.20;;;12.20;7.80;;;;;;5094246;28;20454;-42
2023/02/19 11:10:35;;;;;;;2.33;0.87;;;12.40;1.00;;;;;;5094133;28;20445;-41
2023/02/19 11:13:03;;;;;;;3.93;1.10;;;12.70;1.00;;;;;;5094440;28;20483;-42
2023/02/19 11:15:36;;;;;;;2.00;1.00;;;12.80;1.00;;;;;;5075231;28;20453;-42
2023/02/19 11:18:10;;;;;;;2.13;1.00;;;12.80;1.00;;;;;;5094273;28;20483;-41
2023/02/19 11:20:38;;;;;;;2.07;1.20;;;12.90;1.00;;;;;;5094241;28;20776;-43
2023/02/19 11:23:14;;;;;;;5.73;1.63;;;12.80;1.00;;;;;;5094050;28;20437;-42
2023/02/19 11:25:51;;;;;;;2.30;1.13;;;12.70;1.00;;;;;;5076265;28;20445;-45
2023/02/19 11:28:29;;;;;;;3.40;1.77;;;12.70;1.00;;;;;;5092974;28;20600;-41
2023/02/19 11:30:55;;;;;;;1.50;0.87;;;12.70;1.00;;;;;;5095442;28;20428;-43
2023/02/19 11:33:26;;;;;;;4.43;1.30;;;12.60;1.00;;;;;;5097183;28;20414;-40
2023/02/19 11:36:15;;;;;;;3.33;1.77;;;12.50;1.00;;;;;;5097989;28;20433;-41
2023/02/19 11:38:41;;;;;;;2.63;1.13;;;12.40;1.00;;;;;;5079152;28;20724;-42
2023/02/19 11:41:15;;;;;;;2.10;1.10;;;12.40;1.00;;;;;;5097722;28;20445;-42
2023/02/19 11:44:19;;;;;;;4.00;1.63;;;12.40;1.00;;;;;;5098410;28;20449;-42
2023/02/19 11:47:06;;;;;;;2.63;1.20;;;12.40;1.00;;;;;;5085705;28;20430;-42
2023/02/19 11:50:10;;;;;;;1.57;1.10;;;12.40;1.00;;;;;;5098491;28;20430;-42
2023/02/19 11:53:01;;;;;;;3.83;1.10;;;12.50;1.00;;;;;;5098256;28;20402;-42
2023/02/19 11:56:04;;;;;;;3.20;1.67;;;12.40;1.00;;;;;;5097269;28;20406;-41
2023/02/19 11:58:41;;;;;;;5.60;1.70;;;12.40;1.00;;;;;;5097006;28;20567;-43
2023/02/19 12:01:25;;;;;;;2.93;1.50;;;12.30;1.00;;;;;;5096894;28;20399;-41
2023/02/19 12:04:29;;;;;;;2.17;1.10;;;12.30;1.00;;;;;;5097813;28;20403;-42
2023/02/19 12:07:20;;;;;;;4.10;1.37;;;12.30;1.00;;;;;;5058435;28;20438;-41
2023/02/19 12:10:09;;;;;;;2.47;1.40;;;12.40;1.00;;;;;;5098056;28;20473;-42
2023/02/19 12:12:34;;;;;;;3.30;1.23;;;12.40;1.00;;;;;;5097936;28;20982;-44
2023/02/19 12:15:12;;;;;;;2.93;1.17;;;12.50;1.00;;;;;;5097545;28;20498;-42
2023/02/19 12:17:50;;;;;;;3.30;0.80;;;12.50;1.00;;;;;;5098215;28;20273;-42
2023/02/19 12:20:44;;;;;;;2.80;1.00;;;12.60;1.00;;;;;;5095884;28;20422;-44
2023/02/19 12:23:47;;;;;;;2.60;1.00;;;12.70;1.00;;;;;;5076962;28;20408;-42
2023/02/19 12:26:29;;;;;;;4.83;1.03;;;12.80;1.00;;;;;;5076923;28;20411;-43
2023/02/19 12:29:11;;;;;;;2.93;1.30;;;12.90;1.00;;;;;;5077102;28;20497;-42
2023/02/19 12:31:36;;;;;;;2.57;1.20;;;13.00;1.00;;;;;;5058010;28;20427;-41
2023/02/19 12:34:36;;;;;;;3.03;1.17;;;13.10;1.00;;;;;;5076204;28;20654;-41
2023/02/19 12:37:14;;;;;;;3.40;0.90;;;13.20;1.00;;;;;;5077221;28;20173;-43
2023/02/19 12:40:27;;;;;;;1.70;1.00;;;13.30;1.00;;;;;;5076353;28;20882;-43
2023/02/19 12:43:07;;;;;;;2.17;0.90;;;13.70;1.00;;;;;;5074847;28;20422;-43
2023/02/19 12:45:41;;;;;;;3.47;1.30;;;14.20;1.00;;;;;;5095415;28;20429;-41
2023/02/19 12:48:27;;;;;;;1.90;0.97;;;14.60;1.00;;;;;;5096694;28;20466;-41
2023/02/19 12:51:09;;;;;;;2.50;1.07;;;15.00;1.00;;;;;;5097378;28;20451;-42
2023/02/19 12:53:47;;;;;;;4.70;1.40;;;15.30;1.00;;;;;;5096172;28;20466;-41
2023/02/19 12:56:18;;;;;;;1.93;1.13;;;15.40;1.00;;;;;;5098301;28;20479;-42
2023/02/19 12:58:53;;;;;;;3.20;1.33;;;15.70;1.00;;;;;;5096664;28;20711;-42
2023/02/19 13:01:25;;;;;;;2.97;1.40;;;15.90;1.00;;;;;;5097584;28;20429;-42
2023/02/19 13:04:12;;;;;;;2.00;0.93;;;16.10;1.00;;;;;;5097003;28;20411;-41
2023/02/19 13:06:47;;;;;;;2.30;0.90;;;16.40;1.00;;;;;;5098064;28;20692;-46
2023/02/19 13:09:28;;;;;;;2.30;0.83;;;16.60;1.00;;;;;;5096511;28;20473;-43
2023/02/19 13:11:59;;;;;;;1.60;0.90;;;16.70;1.00;;;;;;5096891;28;20406;-43
2023/02/19 13:14:38;;;;;;;2.43;1.20;;;16.70;1.00;;;;;;5096748;28;20815;-43
2023/02/19 13:17:27;;;;;;;1.93;1.00;;;16.80;1.00;;;;;;5097260;28;20517;-41
2023/02/19 13:19:58;;;;;;;2.97;0.93;;;16.80;1.00;;;;;;5096385;28;20645;-42
2023/02/19 13:25:49;;;;;;;2.00;0.80;;;16.70;1.00;;;;;;5096910;28;20757;-41
2023/02/19 13:28:52;;;;;;;2.53;1.03;;;16.70;1.00;;;;;;5096570;28;21142;-42
2023/02/19 13:31:40;;;;;;;2.33;1.10;;;16.50;1.00;;;;;;5098024;28;20414;-42
2023/02/19 13:34:12;;;;;;;2.90;1.03;;;16.30;1.00;;;;;;5096556;28;20403;-43
2023/02/19 13:36:38;;;;;;;2.70;0.90;;;16.10;1.00;;;;;;5098589;28;20417;-41